Weather observations for the past three days for
Farmville
Metric (Imperial)
Date Time (edt) Wind (kph) Vis. (km) Weather Sky Cond. Temperature (ºC) Relative Humidity Wind Chill (°C) Heat Index (°C) Pressure Precipitation (cm)
Air Dwpt 6 hour altimeter (cm) sea level (mb) 1 hr 3 hr 6 hr
Max. Min.
02 15:35 Calm 16.09 Fair CLR 37.2 23.8 46% 44 76.25 0.0
02 15:15 E 9 16.09 Fair CLR 37.4 23.7 45% 45 76.28 0.0
02 14:55 E 6 16.09 Fair CLR 38.4 23.8 43% 46 76.28 0.0
02 14:35 SE 6 16.09 Fair CLR 37.1 23.7 46% 44 76.3 0.0
02 14:15 E 6 16.09 Fair CLR 36.9 24.5 49% 45 76.3 0.0
02 13:55 Calm 16.09 Fair CLR 36.2 24.3 37.3 24.8 50% 44 76.3 0.0
02 13:35 S 6 16.09 Partly Cloudy SCT055 36 24.2 51% 43 76.33 0.0
02 13:15 E 6 16.09 Partly Cloudy SCT055 36.8 24.6 50% 45 76.33 0.0
02 12:55 Calm 16.09 Fair CLR 37.2 24.8 49% 46 76.35 0.0
02 12:35 SE 6 16.09 Fair CLR 35.8 24.5 52% 44 76.35 0.0
02 12:15 Calm 16.09 Fair CLR 35.7 24.6 53% 44 76.35 0.0
02 11:55 NE 6 16.09 Fair CLR 34.9 24.5 55% 42 76.38 0.0
02 11:35 NE 7 16.09 Fair CLR 34 24.9 59% 42 76.38 0.0
02 11:15 Calm 16.09 Fair CLR 34.4 24.8 57% 42 76.4 0.0
02 10:55 Calm 16.09 Fair CLR 33.5 24.4 59% 40 76.4 0.0
02 10:35 NE 6 16.09 Fair CLR 32.9 24.5 61% 40 76.4 0.0
02 10:15 Calm 16.09 Fair CLR 32.5 24.1 61% 39 76.4 0.0
02 09:55 Calm 16.09 Fair CLR 31.4 24.1 65% 37 76.38 0.0
02 09:35 E 6 16.09 Fair CLR 30.7 24.6 70% 37 76.38 0.0
02 09:15 NE 6 16.09 Fair CLR 29.4 24.6 75% 35 76.35 0.0
02 08:55 Calm 16.09 Fair CLR 28.5 24.5 79% 33 76.35 0.0
02 08:35 Calm 16.09 Fair CLR 26.4 24.1 87% 29 76.38 0.0
02 08:15 Calm 16.09 Fair CLR 25.4 24 92% 27 76.38 0.0
02 07:55 Calm 16.09 Fair CLR 24.7 23.6 24.7 22.1 94% 25 76.38 0.0
02 07:35 Calm 16.09 Fair CLR 23.7 23 96% 76.38 0.0
02 07:15 Calm 11.27 Fair CLR 22.8 22.6 99% 76.38 0.0
02 06:55 Calm 16.09 Fair CLR 22.5 22.5 100% 76.35 0.0
02 06:35 Calm 11.27 Fair CLR 22.4 22.4 100% 76.33 0.0
02 06:15 Calm 16.09 Fair CLR 22.8 22.6 99% 76.3 0.0
02 05:55 Calm 16.09 Fair CLR 22.9 22.8 99% 76.3 0.0
02 05:35 Calm 16.09 Fair CLR 23.1 22.7 98% 76.3 0.0
02 05:15 Calm 16.09 Fair CLR 22.8 22.7 99% 76.3 0.0
02 04:55 Calm 16.09 Fair CLR 23.6 23 96% 76.3 0.0
02 04:35 Calm 16.09 Fair CLR 23.2 22.7 97% 76.3 0.0
02 04:15 Calm 16.09 Fair CLR 24 23.2 95% 23 76.3 0.0
02 03:55 W 6 16.09 Fair CLR 24.2 23.5 96% 23 76.28 0.0
02 03:35 Calm 16.09 Fair CLR 23.6 22.9 96% 76.28 0.0
02 03:15 Calm 16.09 Fair CLR 23.5 23 97% 76.3 0.0
02 02:55 Calm 16.09 Fair CLR 23.2 22.9 98% 76.3 0.0
02 02:35 Calm 16.09 Fair CLR 24.2 23.1 94% 24 76.3 0.0
02 02:15 Calm 16.09 Fair CLR 24.4 23.2 93% 24 76.3 0.0
02 01:55 Calm 16.09 Fair CLR 24.4 23.5 30.2 24.2 95% 24 76.3 0.0
02 01:35 Calm 16.09 Fair CLR 24.4 23.6 95% 24 76.3 0.0
02 01:15 Calm 16.09 Fair CLR 24.6 24 96% 24 76.3 0.0
02 00:55 Calm 16.09 Fair CLR 24.9 24 95% 25 76.3 0.0
02 00:35 Calm 16.09 Fair CLR 25 24.1 95% 26 76.28 0.0
02 00:15 Calm 16.09 Fair CLR 25 24.1 95% 26 76.25 0.0
01 23:55 Calm 16.09 Fair CLR 25.6 23.9 90% 27 76.23 0.0
01 23:35 Calm 16.09 Fair CLR 25 24.5 97% 25 76.23 0.0
01 23:15 Calm 16.09 Fair CLR 26.8 24.2 86% 30 76.23 0.0
01 22:55 Calm 16.09 Fair CLR 26.4 24.7 90% 29 76.23 0.0
01 22:35 Calm 16.09 Fair CLR 26.1 24.5 91% 28 76.23 0.0
01 22:15 Calm 16.09 Fair CLR 26.5 24.3 88% 29 76.23 0.0
01 21:55 Calm 16.09 Fair CLR 28.5 23.7 75% 33 76.2 0.0
01 21:35 Calm 16.09 Fair CLR 28 23.8 78% 32 76.2 0.0
01 21:15 Calm 16.09 Fair CLR 27 24 84% 30 76.17 0.0
01 20:55 Calm 6.44 Fair with Haze CLR 28 23.9 78% 32 76.15 0.0
01 20:35 Calm 16.09 Fair CLR 29.4 23.6 71% 34 76.15 0.0
01 20:15 Calm 16.09 Fair CLR 29.6 23.6 70% 34 76.15 0.0
01 19:55 Calm 11.27 Fair CLR 30.6 23.6 37.4 30.6 66% 36 76.12 0.0
01 19:35 Calm 16.09 Fair CLR 31.9 23.5 61% 37 76.15 0.0
01 19:15 Calm 16.09 Fair CLR 33 23.1 56% 38 76.15 0.0
01 18:55 Calm 16.09 Fair CLR 33.8 23.1 54% 39 76.15 0.0
01 18:35 Calm 16.09 Fair CLR 35.2 22.7 48% 40 76.15 0.0
01 18:15 Calm 16.09 Fair CLR 35.9 22.3 45% 41 76.15 0.0
01 17:55 Calm 16.09 Fair CLR 36.6 22.8 45% 42 76.15 0.0
01 17:35 W 6 16.09 Fair CLR 36.8 22.6 44% 42 76.15 0.0
01 17:15 Calm 16.09 Fair CLR 37.1 22.5 43% 43 76.15 0.0
01 16:55 Calm 16.09 Partly Cloudy SCT075 36.2 23.6 48% 43 76.17 0.0
01 16:35 SE 7 16.09 Fair CLR 36.3 24.1 49% 44 76.17 0.0
01 16:15 S 7 16.09 Partly Cloudy SCT070 SCT085 35.4 23.4 50% 42 76.2 0.0
01 15:55 E 7 16.09 Mostly Cloudy SCT070 BKN085 37.2 22.9 44% 43 76.2 0.0
01 15:35 SW 6 16.09 Mostly Cloudy SCT070 BKN085 36 22.2 45% 41 76.23 0.0
01 15:15 N 9 16.09 Mostly Cloudy SCT070 BKN085 36.9 22.3 43% 42 76.23 0.0
01 14:55 Calm 16.09 Mostly Cloudy BKN085 36.6 23 45% 43 76.23 0.0
01 14:35 SW 7 0.00 NULL NULL 36.3 23 46% 42 76.28 0.0
01 12:35 N 13 16.09 Partly Cloudy SCT055 SCT070 34.8 23.2 51% 41 76.3 0.0
01 12:15 Calm 16.09 Fair CLR 35.9 24 50% 43 76.33 0.0
01 11:55 Calm 16.09 Fair CLR 34.5 22.8 51% 40 76.35 0.0
01 11:35 Calm 16.09 Fair CLR 33.9 24 56% 40 76.35 0.0
01 11:15 Calm 16.09 Fair CLR 33.6 24.3 58% 40 76.35 0.0
01 10:55 SW 6 16.09 Fair CLR 33.1 24.3 60% 40 76.38 0.0
01 10:35 W 6 16.09 Fair CLR 32.3 24.3 63% 39 76.38 0.0
01 10:15 W 7 16.09 Fair CLR 31.6 24.5 66% 38 76.38 0.0
01 09:55 SW 6 16.09 Fair CLR 31.2 24.7 68% 38 76.38 0.0
01 09:35 Calm 16.09 Fair CLR 29.5 25 77% 35 76.38 0.0
01 09:15 SW 6 16.09 Fair CLR 28.7 24.7 79% 34 76.38 0.0
01 08:55 Calm 16.09 Fair CLR 27.1 24.5 86% 31 76.4 0.0
01 08:35 Calm 16.09 Fair CLR 25.3 23.9 92% 26 76.4 0.0
01 08:15 Calm 16.09 Fair CLR 24.3 23.5 95% 24 76.4 0.0
01 07:55 Calm 16.09 Fair CLR 23.6 23.1 23.6 20.7 97% 76.38 0.0
01 07:35 Calm 11.27 Fair CLR 22.5 22.5 100% 76.38 0.0
01 07:15 Calm 8.05 Fog/Mist CLR 21.8 21.8 100% 76.35 0.0
01 06:35 Calm 11.27 Fair CLR 21.8 21.8 100% 76.35 0.0
01 06:15 S 6 8.05 Fog/Mist CLR 20.8 20.8 100% 76.33 0.0
01 05:55 Calm 8.05 Fog/Mist SCT002 21.6 21.6 100% 76.35 0.0
01 05:35 Calm 1.21 Fog/Mist BKN002 21.8 21.8 100% 76.35 0.0
01 05:15 Calm 6.44 Fog/Mist CLR 22 22 100% 76.35 0.0
01 04:55 Calm 8.05 Fog/Mist CLR 21.8 21.8 100% 76.35 0.0
01 04:35 Calm 11.27 Fair CLR 22 22 100% 76.35 0.0
01 04:15 Calm 11.27 Fair CLR 22.2 22.2 100% 76.35 0.0
01 03:55 Calm 11.27 Fair CLR 22.3 22.3 100% 76.35 0.0
01 03:35 Calm 11.27 Fair CLR 21.9 21.9 100% 76.35 0.0
01 03:15 Calm 16.09 Fair CLR 22.6 22.6 100% 76.35 0.0
01 02:55 Calm 16.09 Fair CLR 22.4 22.4 100% 76.35 0.0
01 02:35 Calm 16.09 Fair CLR 22.6 22.6 100% 76.35 0.0
01 02:15 Calm 16.09 Fair CLR 22.8 22.8 100% 76.38 0.0
01 01:55 Calm 16.09 Fair CLR 23.2 23.1 29.6 22.5 99% 76.4 0.0
01 01:35 Calm 16.09 Fair CLR 22.7 22.5 99% 76.4 0.0
01 01:15 Calm 16.09 Fair CLR 23.3 22.8 97% 76.4 0.0
01 00:55 Calm 16.09 Fair CLR 24.2 23.2 94% 24 76.4 0.0
01 00:35 Calm 16.09 Fair CLR 23.9 23.1 95% 23 76.4 0.0
01 00:15 Calm 16.09 Fair CLR 24.3 23.5 95% 24 76.4 0.0
31 23:55 Calm 16.09 Fair CLR 24.6 23.5 94% 25 76.4 0.0
31 23:35 Calm 16.09 Fair CLR 24.7 23.5 93% 25 76.4 0.0
31 23:15 Calm 16.09 Fair CLR 25.5 23.6 89% 27 76.43 0.0
31 22:55 Calm 16.09 Fair CLR 25.6 23.6 89% 27 76.43 0.0
31 22:35 Calm 16.09 Partly Cloudy SCT100 26 23.6 87% 28 76.43 0.0
31 22:15 Calm 16.09 Mostly Cloudy BKN100 26.2 23.7 86% 28 76.43 0.0
31 21:55 Calm 16.09 Partly Cloudy SCT070 SCT100 26.7 23.7 84% 29 76.43 0.0
31 21:35 Calm 16.09 Mostly Cloudy BKN070 BKN110 26.9 23.6 82% 30 76.4 0.0
31 21:15 SW 6 16.09 Mostly Cloudy BKN070 27.1 23.5 81% 30 76.4 0.0
31 20:55 Calm 16.09 Mostly Cloudy SCT070 BKN120 27.5 23.5 79% 31 76.38 0.0
31 20:35 Calm 16.09 Mostly Cloudy BKN120 27.6 23.8 80% 31 76.38 0.0
31 20:15 N 9 16.09 Overcast SCT065 BKN090 OVC120 28.3 24 78% 32 76.38 0.0
31 19:55 N 15 G 28 16.09 Overcast BKN065 OVC090 29.8 24.5 35.9 29.8 73% 35 76.35 0.0
31 19:35 NE 6 16.09 Overcast SCT065 OVC090 30.4 24.2 69% 36 76.33 0.0
31 19:15 Calm 16.09 Overcast OVC090 31 24.4 68% 37 76.33 0.0
31 18:55 NE 6 16.09 Mostly Cloudy SCT070 SCT075 BKN090 31.4 24.3 66% 37 76.33 0.0
31 18:35 NE 7 16.09 Mostly Cloudy BKN070 33 23.9 59% 39 76.33 0.0
31 18:15 NE 7 16.09 Partly Cloudy SCT070 34.2 23.9 55% 41 76.33 0.0
31 17:55 E 9 16.09 Fair CLR 35.2 24.1 53% 42 76.3 0.0
31 17:35 Calm 16.09 Fair CLR 35.3 23.5 50% 42 76.3 0.0
31 17:15 Calm 16.09 Fair CLR 35.6 23.3 49% 42 76.3 0.0
31 16:55 E 7 0.00 NULL NULL 35.5 24 51% 42 76.3 0.0
31 16:35 Calm 16.09 Partly Cloudy SCT120 34.2 23.5 54% 40 76.33 0.0
31 16:15 Calm 16.09 Partly Cloudy SCT120 35.3 23.9 52% 42 76.33 0.0
31 15:55 Calm 16.09 Partly Cloudy SCT055 32.9 24.7 62% 40 76.33 0.0
31 15:35 E 6 16.09 Fair CLR 34 23.9 56% 40 76.35 0.0
31 15:15 Calm 16.09 Fair CLR 34.6 23.7 53% 41 76.35 0.0
31 14:55 E 7 16.09 Fair CLR 35.3 24.1 52% 42 76.38 0.0
31 14:35 NE 6 16.09 Partly Cloudy SCT050 34.1 23.2 53% 40 76.38 0.0
31 14:15 S 6 16.09 Fair CLR 35 23.7 52% 41 76.4 0.0
31 13:55 Calm 16.09 Partly Cloudy SCT055 32.9 23.7 34.7 23.3 58% 39 76.4 0.0
31 13:35 NE 6 2.41 Partly Cloudy with Haze SCT055 34.4 24.2 55% 41 76.43 0.0
31 13:15 NE 11 16.09 Fair CLR 33.8 24.2 57% 41 76.43 0.0
31 12:55 NE 6 16.09 Fair CLR 34.2 24.2 56% 41 76.43 0.0
31 12:35 E 6 16.09 Fair CLR 33.1 24.1 59% 39 76.45 0.0
31 12:15 NE 7 16.09 Fair CLR 33.1 24.3 60% 40 76.48 0.0
31 11:55 NE 7 16.09 Fair CLR 32.5 23.9 61% 38 76.48 0.0
31 11:35 E 6 16.09 Fair CLR 32 23.9 62% 38 76.48 0.0
31 11:15 Calm 16.09 Fair CLR 32.2 23.4 60% 37 76.48 0.0
31 10:55 NE 6 16.09 Partly Cloudy SCT100 31.7 25.3 69% 39 76.48 0.0
31 10:35 Calm 16.09 Mostly Cloudy BKN100 29.8 25.2 76% 36 76.48 0.0
31 10:15 SE 6 16.09 Fair CLR 28.4 24.6 80% 33 76.45 0.0
31 09:55 Calm 16.09 Fair CLR 27.4 23.7 80% 31 76.48 0.0
31 09:35 Calm 16.09 Partly Cloudy SCT065 SCT120 26 23.6 87% 28 76.48 0.0
31 09:15 Calm 16.09 Overcast SCT065 OVC120 25.2 23.7 91% 26 76.48 0.0
31 08:55 Calm 16.09 Overcast OVC120 24.4 23.3 94% 24 76.5 0.0
31 08:35 Calm 16.09 Mostly Cloudy BKN120 24.1 23 94% 23 76.48 0.0
31 08:15 S 6 16.09 Partly Cloudy SCT120 23.6 23 96% 76.48 0.0
31 07:55 Calm 16.09 Partly Cloudy SCT120 23.2 22.9 23.7 21.1 98% 76.48 0.0
31 07:35 S 6 16.09 Fair CLR 22.5 22.4 99% 76.45 0.0
31 07:15 Calm 16.09 Fair CLR 22 22 100% 76.45 0.0
31 06:55 SW 7 16.09 Fair CLR 21.9 21.9 100% 76.43 0.0
31 06:35 Calm 16.09 Fair CLR 21.8 21.8 100% 76.43 0.0
31 06:15 SW 7 16.09 Partly Cloudy SCT110 22 22 100% 76.43 0.0
31 05:55 SW 6 16.09 Mostly Cloudy BKN110 22.2 22.1 99% 76.43 0.0
31 05:35 SW 6 16.09 Overcast OVC110 21.4 21.4 100% 76.43 0.0
31 05:15 Calm 16.09 Partly Cloudy SCT110 22 22 100% 76.43 0.0
31 04:55 Calm 16.09 Partly Cloudy SCT110 21.8 21.8 100% 76.4 0.0
31 04:35 Calm 16.09 Partly Cloudy SCT110 21.4 21.3 99% 76.4 0.0
31 04:15 Calm 16.09 Partly Cloudy SCT110 21.8 21.8 100% 76.4 0.0
31 03:55 Calm 16.09 Partly Cloudy SCT110 21.8 21.8 100% 76.4 0.0
31 03:35 Calm 16.09 Fair CLR 23 22.5 97% 76.43 0.0
31 03:15 Calm 16.09 Fair CLR 21.6 21.5 99% 76.4 0.0
31 02:55 Calm 16.09 Fair CLR 23.3 22.5 95% 76.43 0.0
31 02:35 Calm 16.09 Fair CLR 23.3 22.4 95% 76.43 0.0
31 02:15 Calm 16.09 Fair CLR 23.1 22.4 96% 76.43 0.0
31 01:55 Calm 16.09 Fair CLR 23.2 22.5 28.2 23.1 96% 76.45 0.0
31 01:35 Calm 16.09 Fair CLR 23.2 22.5 96% 76.45 0.0
31 01:15 Calm 16.09 Fair CLR 23.1 22.3 95% 76.45 0.0
31 00:55 Calm 16.09 Fair CLR 24.3 22.6 90% 24 76.48 0.0
31 00:35 Calm 16.09 Fair CLR 23.7 22.4 92% 76.48 0.0
31 00:15 Calm 16.09 Fair CLR 24.8 22.6 88% 25 76.48 0.0
30 23:55 Calm 16.09 Fair CLR 24.5 22.7 90% 25 76.48 0.0
30 23:35 Calm 16.09 Fair CLR 25 22.7 87% 26 76.48 0.0
30 23:15 SW 6 16.09 Fair CLR 25.5 22.7 85% 27 76.48 0.0
30 22:55 S 6 16.09 Fair CLR 25.2 22.7 86% 26 76.48 0.0
30 22:35 Calm 16.09 Fair CLR 25.6 22.9 85% 27 76.5 0.0
30 22:15 S 7 16.09 Fair CLR 25.5 22.8 85% 27 76.48 0.0
30 21:55 S 9 16.09 Fair CLR 26 22.9 83% 28 76.48 0.0
30 21:35 S 6 16.09 Fair CLR 26.1 23.1 84% 28 76.48 0.0
30 21:15 S 6 16.09 Fair CLR 26.5 23.2 82% 29 76.48 0.0
30 20:55 S 6 16.09 Fair CLR 26.8 23.1 80% 29 76.45 0.0
30 20:35 Calm 16.09 Fair CLR 27 23 79% 30 76.45 0.0
30 20:15 Calm 16.09 Fair CLR 27.7 23 76% 31 76.43 0.0
30 19:55 Calm 16.09 Thunderstorm in Vicinity CLR 28.3 23 32.7 28.2 73% 32 76.4 0.0
30 19:35 S 6 16.09 Fair CLR 28.6 23 72% 32 76.4 0.0
30 19:15 S 6 16.09 Fair CLR 29.2 22.8 68% 33 76.4 0.0
30 18:55 S 7 16.09 Fair CLR 30 22.6 65% 34 76.4 0.0
30 18:35 S 7 16.09 Fair CLR 30.9 22.8 62% 35 76.43 0.0
30 18:15 S 11 16.09 Fair CLR 31.9 22.4 57% 36 76.43 0.0
30 17:55 S 11 16.09 Fair CLR 32.5 22 54% 36 76.43 0.0
30 17:35 S 11 16.09 Fair CLR 32.6 22.5 55% 37 76.4 0.0
30 17:15 S 15 16.09 Fair CLR 32.6 21.7 53% 36 76.4 0.0
30 16:55 S 15 16.09 Fair CLR 32.6 22 54% 37 76.4 0.0
30 16:35 S 11 16.09 Fair CLR 32.6 22.8 56% 37 76.43 0.0
30 16:15 S 11 16.09 Fair CLR 32.3 23 58% 37 76.45 0.0
30 15:55 S 15 16.09 Fair CLR 32.2 23.2 59% 37 76.45 0.0
Date Time (edt) Wind (kph) Vis. (km) Weather Sky Cond. Air Dwpt Max. Min. Relative Humidity Wind Chill (°C) Heat Index (°C) altimeter (cm) sea level (mb) 1 hr 3 hr 6 hr
6 hour
Temperature (ºC) Pressure Precipitation (cm)